sensor_id;sensor_type;location;lat;lon;timestamp;P1;durP1;ratioP1;P2;durP2;ratioP2
41667;SDS011;27356;50.920;5.350;2023-02-15T00:01:54;67.20;;;29.73;;
41667;SDS011;27356;50.920;5.350;2023-02-15T00:04:21;61.08;;;29.70;;
41667;SDS011;27356;50.920;5.350;2023-02-15T00:06:49;70.53;;;29.20;;
41667;SDS011;27356;50.920;5.350;2023-02-15T00:09:15;66.72;;;29.00;;
41667;SDS011;27356;50.920;5.350;2023-02-15T00:11:41;69.88;;;32.28;;
41667;SDS011;27356;50.920;5.350;2023-02-15T00:14:17;70.43;;;30.50;;
41667;SDS011;27356;50.920;5.350;2023-02-15T00:16:45;74.00;;;32.42;;
41667;SDS011;27356;50.920;5.350;2023-02-15T00:19:12;69.25;;;31.45;;
41667;SDS011;27356;50.920;5.350;2023-02-15T00:21:39;63.13;;;30.02;;
41667;SDS011;27356;50.920;5.350;2023-02-15T00:24:06;62.40;;;29.85;;
41667;SDS011;27356;50.920;5.350;2023-02-15T00:26:34;62.22;;;27.85;;
41667;SDS011;27356;50.920;5.350;2023-02-15T00:29:00;63.33;;;28.23;;
41667;SDS011;27356;50.920;5.350;2023-02-15T00:31:27;61.00;;;29.60;;
41667;SDS011;27356;50.920;5.350;2023-02-15T00:33:55;53.88;;;28.10;;
41667;SDS011;27356;50.920;5.350;2023-02-15T00:36:26;58.00;;;27.42;;
41667;SDS011;27356;50.920;5.350;2023-02-15T00:38:51;63.08;;;28.65;;
41667;SDS011;27356;50.920;5.350;2023-02-15T00:41:17;57.08;;;26.75;;
41667;SDS011;27356;50.920;5.350;2023-02-15T00:43:43;60.25;;;29.25;;
41667;SDS011;27356;50.920;5.350;2023-02-15T00:46:08;56.80;;;28.75;;
41667;SDS011;27356;50.920;5.350;2023-02-15T00:48:34;66.18;;;29.42;;
41667;SDS011;27356;50.920;5.350;2023-02-15T00:51:00;67.13;;;28.38;;
41667;SDS011;27356;50.920;5.350;2023-02-15T00:53:26;59.70;;;28.50;;
41667;SDS011;27356;50.920;5.350;2023-02-15T00:55:53;58.60;;;27.98;;
41667;SDS011;27356;50.920;5.350;2023-02-15T00:58:18;61.33;;;29.05;;
41667;SDS011;27356;50.920;5.350;2023-02-15T01:00:45;65.75;;;30.00;;
41667;SDS011;27356;50.920;5.350;2023-02-15T01:03:12;68.90;;;31.45;;
41667;SDS011;27356;50.920;5.350;2023-02-15T01:05:39;66.15;;;31.58;;
41667;SDS011;27356;50.920;5.350;2023-02-15T01:08:05;63.38;;;29.38;;
41667;SDS011;27356;50.920;5.350;2023-02-15T01:10:31;66.65;;;28.58;;
41667;SDS011;27356;50.920;5.350;2023-02-15T01:12:58;65.05;;;29.83;;
41667;SDS011;27356;50.920;5.350;2023-02-15T01:15:23;62.75;;;29.95;;
41667;SDS011;27356;50.920;5.350;2023-02-15T01:17:49;70.38;;;30.85;;
41667;SDS011;27356;50.920;5.350;2023-02-15T01:20:20;68.20;;;30.55;;
41667;SDS011;27356;50.920;5.350;2023-02-15T01:22:47;63.58;;;29.65;;
41667;SDS011;27356;50.920;5.350;2023-02-15T01:25:15;60.00;;;28.38;;
41667;SDS011;27356;50.920;5.350;2023-02-15T01:27:44;77.28;;;30.35;;
41667;SDS011;27356;50.920;5.350;2023-02-15T01:30:11;66.00;;;31.25;;
41667;SDS011;27356;50.920;5.350;2023-02-15T01:32:38;65.22;;;29.48;;
41667;SDS011;27356;50.920;5.350;2023-02-15T01:35:05;68.10;;;28.52;;
41667;SDS011;27356;50.920;5.350;2023-02-15T01:37:31;52.47;;;27.27;;
41667;SDS011;27356;50.920;5.350;2023-02-15T01:39:58;61.97;;;29.27;;
41667;SDS011;27356;50.920;5.350;2023-02-15T01:42:25;67.53;;;29.23;;
41667;SDS011;27356;50.920;5.350;2023-02-15T01:47:38;66.07;;;31.70;;
41667;SDS011;27356;50.920;5.350;2023-02-15T01:52:43;64.50;;;29.90;;
41667;SDS011;27356;50.920;5.350;2023-02-15T01:55:32;65.60;;;30.42;;
41667;SDS011;27356;50.920;5.350;2023-02-15T01:58:01;71.25;;;30.23;;
41667;SDS011;27356;50.920;5.350;2023-02-15T02:00:27;66.28;;;29.30;;
41667;SDS011;27356;50.920;5.350;2023-02-15T02:02:56;64.78;;;30.30;;
41667;SDS011;27356;50.920;5.350;2023-02-15T02:05:22;63.15;;;30.33;;
41667;SDS011;27356;50.920;5.350;2023-02-15T02:07:49;66.28;;;30.27;;
41667;SDS011;27356;50.920;5.350;2023-02-15T02:10:18;74.55;;;31.40;;
41667;SDS011;27356;50.920;5.350;2023-02-15T02:12:48;64.72;;;28.40;;
41667;SDS011;27356;50.920;5.350;2023-02-15T02:15:16;67.63;;;28.80;;
41667;SDS011;27356;50.920;5.350;2023-02-15T02:17:46;67.13;;;29.70;;
41667;SDS011;27356;50.920;5.350;2023-02-15T02:20:38;62.33;;;29.98;;
41667;SDS011;27356;50.920;5.350;2023-02-15T02:34:28;54.10;;;26.75;;
41667;SDS011;27356;50.920;5.350;2023-02-15T02:40:06;60.88;;;28.52;;
41667;SDS011;27356;50.920;5.350;2023-02-15T02:45:20;62.05;;;27.45;;
41667;SDS011;27356;50.920;5.350;2023-02-15T02:47:56;61.15;;;27.90;;
41667;SDS011;27356;50.920;5.350;2023-02-15T02:50:31;61.40;;;29.00;;
41667;SDS011;27356;50.920;5.350;2023-02-15T02:52:57;66.75;;;30.52;;
41667;SDS011;27356;50.920;5.350;2023-02-15T02:55:25;68.57;;;29.95;;
41667;SDS011;27356;50.920;5.350;2023-02-15T02:58:01;61.33;;;26.13;;
41667;SDS011;27356;50.920;5.350;2023-02-15T03:00:40;66.88;;;28.23;;
41667;SDS011;27356;50.920;5.350;2023-02-15T03:03:14;62.90;;;28.02;;
41667;SDS011;27356;50.920;5.350;2023-02-15T03:05:46;68.57;;;29.27;;
41667;SDS011;27356;50.920;5.350;2023-02-15T03:08:15;60.70;;;28.17;;
41667;SDS011;27356;50.920;5.350;2023-02-15T03:10:46;60.10;;;28.43;;
41667;SDS011;27356;50.920;5.350;2023-02-15T03:13:14;72.70;;;29.80;;
41667;SDS011;27356;50.920;5.350;2023-02-15T03:15:40;66.50;;;30.15;;
41667;SDS011;27356;50.920;5.350;2023-02-15T03:19:12;65.18;;;29.83;;
41667;SDS011;27356;50.920;5.350;2023-02-15T03:21:30;60.35;;;29.05;;
41667;SDS011;27356;50.920;5.350;2023-02-15T03:24:06;66.97;;;29.67;;
41667;SDS011;27356;50.920;5.350;2023-02-15T03:26:37;63.53;;;27.80;;
41667;SDS011;27356;50.920;5.350;2023-02-15T03:29:05;58.67;;;28.00;;
41667;SDS011;27356;50.920;5.350;2023-02-15T03:31:32;68.43;;;28.77;;
41667;SDS011;27356;50.920;5.350;2023-02-15T03:34:03;73.32;;;30.20;;
41667;SDS011;27356;50.920;5.350;2023-02-15T03:36:47;68.38;;;28.33;;
41667;SDS011;27356;50.920;5.350;2023-02-15T03:44:49;64.07;;;29.20;;
41667;SDS011;27356;50.920;5.350;2023-02-15T03:47:20;71.40;;;28.60;;
41667;SDS011;27356;50.920;5.350;2023-02-15T03:50:13;58.83;;;28.50;;
41667;SDS011;27356;50.920;5.350;2023-02-15T03:53:01;61.13;;;28.30;;
41667;SDS011;27356;50.920;5.350;2023-02-15T03:55:30;66.55;;;28.23;;
41667;SDS011;27356;50.920;5.350;2023-02-15T03:57:56;64.53;;;27.48;;
41667;SDS011;27356;50.920;5.350;2023-02-15T04:00:43;65.13;;;27.58;;
41667;SDS011;27356;50.920;5.350;2023-02-15T04:03:39;62.60;;;27.65;;
41667;SDS011;27356;50.920;5.350;2023-02-15T04:06:12;66.70;;;28.88;;
41667;SDS011;27356;50.920;5.350;2023-02-15T04:08:38;68.95;;;28.13;;
41667;SDS011;27356;50.920;5.350;2023-02-15T04:11:22;60.30;;;27.27;;
41667;SDS011;27356;50.920;5.350;2023-02-15T04:13:48;63.08;;;28.83;;
41667;SDS011;27356;50.920;5.350;2023-02-15T04:16:21;63.10;;;27.95;;
41667;SDS011;27356;50.920;5.350;2023-02-15T04:18:49;68.50;;;29.45;;
41667;SDS011;27356;50.920;5.350;2023-02-15T04:21:33;74.05;;;31.08;;
41667;SDS011;27356;50.920;5.350;2023-02-15T04:24:17;60.95;;;29.00;;
41667;SDS011;27356;50.920;5.350;2023-02-15T04:27:02;62.47;;;28.25;;
41667;SDS011;27356;50.920;5.350;2023-02-15T04:29:29;62.72;;;27.15;;
41667;SDS011;27356;50.920;5.350;2023-02-15T04:31:56;61.00;;;28.85;;
41667;SDS011;27356;50.920;5.350;2023-02-15T04:34:23;60.28;;;28.50;;
41667;SDS011;27356;50.920;5.350;2023-02-15T04:36:48;59.30;;;28.40;;
41667;SDS011;27356;50.920;5.350;2023-02-15T04:39:15;64.05;;;27.90;;
41667;SDS011;27356;50.920;5.350;2023-02-15T04:41:42;68.55;;;29.35;;
41667;SDS011;27356;50.920;5.350;2023-02-15T04:44:11;63.03;;;28.88;;
41667;SDS011;27356;50.920;5.350;2023-02-15T04:46:37;61.47;;;28.35;;
41667;SDS011;27356;50.920;5.350;2023-02-15T04:49:06;61.53;;;29.30;;
41667;SDS011;27356;50.920;5.350;2023-02-15T04:51:33;59.30;;;28.60;;
41667;SDS011;27356;50.920;5.350;2023-02-15T04:53:58;69.05;;;28.77;;
41667;SDS011;27356;50.920;5.350;2023-02-15T04:56:24;63.80;;;30.65;;
41667;SDS011;27356;50.920;5.350;2023-02-15T04:58:50;67.93;;;29.52;;
41667;SDS011;27356;50.920;5.350;2023-02-15T05:01:15;54.45;;;26.85;;
41667;SDS011;27356;50.920;5.350;2023-02-15T05:03:42;56.28;;;28.90;;
41667;SDS011;27356;50.920;5.350;2023-02-15T05:06:10;65.68;;;28.73;;
41667;SDS011;27356;50.920;5.350;2023-02-15T05:08:36;74.32;;;32.30;;
41667;SDS011;27356;50.920;5.350;2023-02-15T05:11:01;64.03;;;28.25;;
41667;SDS011;27356;50.920;5.350;2023-02-15T05:13:27;62.38;;;30.10;;
41667;SDS011;27356;50.920;5.350;2023-02-15T05:15:53;73.47;;;29.45;;
41667;SDS011;27356;50.920;5.350;2023-02-15T05:18:20;62.70;;;27.67;;
41667;SDS011;27356;50.920;5.350;2023-02-15T05:20:46;66.20;;;27.77;;
41667;SDS011;27356;50.920;5.350;2023-02-15T05:23:13;67.57;;;28.60;;
41667;SDS011;27356;50.920;5.350;2023-02-15T05:25:39;67.40;;;30.15;;
41667;SDS011;27356;50.920;5.350;2023-02-15T05:28:25;66.25;;;28.88;;
41667;SDS011;27356;50.920;5.350;2023-02-15T05:31:00;61.42;;;29.15;;
41667;SDS011;27356;50.920;5.350;2023-02-15T05:33:36;62.00;;;28.13;;
41667;SDS011;27356;50.920;5.350;2023-02-15T05:36:02;67.32;;;28.67;;
41667;SDS011;27356;50.920;5.350;2023-02-15T05:38:28;63.05;;;28.00;;
41667;SDS011;27356;50.920;5.350;2023-02-15T05:40:55;65.28;;;28.55;;
41667;SDS011;27356;50.920;5.350;2023-02-15T05:43:21;65.80;;;28.35;;
41667;SDS011;27356;50.920;5.350;2023-02-15T05:45:47;59.25;;;27.95;;
41667;SDS011;27356;50.920;5.350;2023-02-15T05:48:14;64.13;;;28.58;;
41667;SDS011;27356;50.920;5.350;2023-02-15T05:50:40;70.35;;;28.90;;
41667;SDS011;27356;50.920;5.350;2023-02-15T05:53:06;60.40;;;29.33;;
41667;SDS011;27356;50.920;5.350;2023-02-15T05:55:32;60.42;;;28.10;;
41667;SDS011;27356;50.920;5.350;2023-02-15T05:57:57;64.68;;;28.38;;
41667;SDS011;27356;50.920;5.350;2023-02-15T06:00:23;63.60;;;29.58;;
41667;SDS011;27356;50.920;5.350;2023-02-15T06:02:50;61.30;;;28.40;;
41667;SDS011;27356;50.920;5.350;2023-02-15T06:05:16;62.35;;;27.65;;
41667;SDS011;27356;50.920;5.350;2023-02-15T06:07:45;55.05;;;27.13;;
41667;SDS011;27356;50.920;5.350;2023-02-15T06:10:11;59.40;;;27.45;;
41667;SDS011;27356;50.920;5.350;2023-02-15T06:12:36;71.18;;;31.90;;
41667;SDS011;27356;50.920;5.350;2023-02-15T06:15:03;72.35;;;29.02;;
41667;SDS011;27356;50.920;5.350;2023-02-15T06:17:29;69.82;;;29.83;;
41667;SDS011;27356;50.920;5.350;2023-02-15T06:19:54;71.13;;;29.27;;
41667;SDS011;27356;50.920;5.350;2023-02-15T06:22:20;60.08;;;27.85;;
41667;SDS011;27356;50.920;5.350;2023-02-15T06:24:46;64.97;;;29.52;;
41667;SDS011;27356;50.920;5.350;2023-02-15T06:27:12;70.90;;;32.47;;
41667;SDS011;27356;50.920;5.350;2023-02-15T06:29:38;72.05;;;32.63;;
41667;SDS011;27356;50.920;5.350;2023-02-15T06:32:04;76.93;;;33.78;;
41667;SDS011;27356;50.920;5.350;2023-02-15T06:34:30;78.47;;;33.00;;
41667;SDS011;27356;50.920;5.350;2023-02-15T06:36:55;97.40;;;40.88;;
41667;SDS011;27356;50.920;5.350;2023-02-15T06:39:21;101.75;;;36.47;;
41667;SDS011;27356;50.920;5.350;2023-02-15T06:41:47;81.22;;;34.35;;
41667;SDS011;27356;50.920;5.350;2023-02-15T06:44:13;86.95;;;35.53;;
41667;SDS011;27356;50.920;5.350;2023-02-15T06:46:38;82.50;;;34.50;;
41667;SDS011;27356;50.920;5.350;2023-02-15T06:49:04;73.63;;;34.50;;
41667;SDS011;27356;50.920;5.350;2023-02-15T06:51:30;70.25;;;31.05;;
41667;SDS011;27356;50.920;5.350;2023-02-15T06:53:56;85.50;;;38.38;;
41667;SDS011;27356;50.920;5.350;2023-02-15T06:56:22;90.35;;;39.45;;
41667;SDS011;27356;50.920;5.350;2023-02-15T06:58:47;83.13;;;36.58;;
41667;SDS011;27356;50.920;5.350;2023-02-15T07:01:14;79.65;;;34.45;;
41667;SDS011;27356;50.920;5.350;2023-02-15T07:03:41;80.70;;;35.08;;
41667;SDS011;27356;50.920;5.350;2023-02-15T07:06:06;79.40;;;34.22;;
41667;SDS011;27356;50.920;5.350;2023-02-15T07:08:34;74.47;;;32.65;;
41667;SDS011;27356;50.920;5.350;2023-02-15T07:11:00;81.80;;;35.60;;
41667;SDS011;27356;50.920;5.350;2023-02-15T07:13:45;78.00;;;31.33;;
41667;SDS011;27356;50.920;5.350;2023-02-15T07:16:12;73.97;;;33.08;;
41667;SDS011;27356;50.920;5.350;2023-02-15T07:18:38;69.07;;;30.73;;
41667;SDS011;27356;50.920;5.350;2023-02-15T07:21:05;72.32;;;32.97;;
41667;SDS011;27356;50.920;5.350;2023-02-15T07:23:34;98.45;;;31.65;;
41667;SDS011;27356;50.920;5.350;2023-02-15T07:26:04;118.50;;;35.90;;
41667;SDS011;27356;50.920;5.350;2023-02-15T07:28:31;192.32;;;42.53;;
41667;SDS011;27356;50.920;5.350;2023-02-15T07:30:58;114.63;;;33.88;;
41667;SDS011;27356;50.920;5.350;2023-02-15T07:33:25;138.27;;;35.50;;
41667;SDS011;27356;50.920;5.350;2023-02-15T07:35:56;97.78;;;35.75;;
41667;SDS011;27356;50.920;5.350;2023-02-15T07:38:24;136.73;;;36.33;;
41667;SDS011;27356;50.920;5.350;2023-02-15T07:40:56;160.02;;;37.13;;
41667;SDS011;27356;50.920;5.350;2023-02-15T07:43:26;140.95;;;36.70;;
41667;SDS011;27356;50.920;5.350;2023-02-15T07:45:53;140.90;;;36.08;;
41667;SDS011;27356;50.920;5.350;2023-02-15T07:48:18;119.97;;;33.92;;
41667;SDS011;27356;50.920;5.350;2023-02-15T07:50:44;105.93;;;34.30;;
41667;SDS011;27356;50.920;5.350;2023-02-15T07:53:10;113.63;;;36.33;;
41667;SDS011;27356;50.920;5.350;2023-02-15T07:55:35;123.20;;;35.80;;
41667;SDS011;27356;50.920;5.350;2023-02-15T07:58:01;119.07;;;38.13;;
41667;SDS011;27356;50.920;5.350;2023-02-15T08:00:27;94.43;;;34.75;;
41667;SDS011;27356;50.920;5.350;2023-02-15T08:02:54;106.50;;;35.47;;
41667;SDS011;27356;50.920;5.350;2023-02-15T08:05:39;81.63;;;34.35;;
41667;SDS011;27356;50.920;5.350;2023-02-15T08:08:07;89.28;;;34.55;;
41667;SDS011;27356;50.920;5.350;2023-02-15T08:10:34;84.10;;;32.72;;
41667;SDS011;27356;50.920;5.350;2023-02-15T08:13:19;115.32;;;32.80;;
41667;SDS011;27356;50.920;5.350;2023-02-15T08:15:49;115.30;;;33.63;;
41667;SDS011;27356;50.920;5.350;2023-02-15T08:18:15;100.95;;;30.40;;
41667;SDS011;27356;50.920;5.350;2023-02-15T08:20:40;60.35;;;27.38;;
41667;SDS011;27356;50.920;5.350;2023-02-15T08:23:06;56.53;;;24.42;;
41667;SDS011;27356;50.920;5.350;2023-02-15T08:25:32;54.55;;;22.35;;
41667;SDS011;27356;50.920;5.350;2023-02-15T08:27:58;57.22;;;23.85;;
41667;SDS011;27356;50.920;5.350;2023-02-15T08:30:23;55.78;;;22.25;;
41667;SDS011;27356;50.920;5.350;2023-02-15T08:32:49;48.90;;;24.38;;
41667;SDS011;27356;50.920;5.350;2023-02-15T08:35:15;55.45;;;24.35;;
41667;SDS011;27356;50.920;5.350;2023-02-15T08:37:41;47.63;;;22.30;;
41667;SDS011;27356;50.920;5.350;2023-02-15T08:40:07;53.05;;;22.60;;
41667;SDS011;27356;50.920;5.350;2023-02-15T08:42:33;49.17;;;22.83;;
41667;SDS011;27356;50.920;5.350;2023-02-15T08:44:59;43.20;;;21.83;;
41667;SDS011;27356;50.920;5.350;2023-02-15T08:47:26;38.88;;;21.17;;
41667;SDS011;27356;50.920;5.350;2023-02-15T08:49:52;45.17;;;22.33;;
41667;SDS011;27356;50.920;5.350;2023-02-15T08:52:18;49.42;;;22.55;;
41667;SDS011;27356;50.920;5.350;2023-02-15T08:54:43;45.88;;;22.70;;
41667;SDS011;27356;50.920;5.350;2023-02-15T08:57:09;47.63;;;22.17;;
41667;SDS011;27356;50.920;5.350;2023-02-15T08:59:35;48.85;;;22.00;;
41667;SDS011;27356;50.920;5.350;2023-02-15T09:02:01;44.28;;;22.20;;
41667;SDS011;27356;50.920;5.350;2023-02-15T09:04:28;42.70;;;21.92;;
41667;SDS011;27356;50.920;5.350;2023-02-15T09:06:53;40.22;;;22.00;;
41667;SDS011;27356;50.920;5.350;2023-02-15T09:09:20;48.80;;;23.67;;
41667;SDS011;27356;50.920;5.350;2023-02-15T09:11:47;60.45;;;23.10;;
41667;SDS011;27356;50.920;5.350;2023-02-15T09:14:18;46.25;;;21.95;;
41667;SDS011;27356;50.920;5.350;2023-02-15T09:16:47;62.17;;;24.55;;
41667;SDS011;27356;50.920;5.350;2023-02-15T09:19:18;57.55;;;23.08;;
41667;SDS011;27356;50.920;5.350;2023-02-15T09:21:45;51.08;;;21.63;;
41667;SDS011;27356;50.920;5.350;2023-02-15T09:24:12;48.60;;;21.83;;
41667;SDS011;27356;50.920;5.350;2023-02-15T09:26:40;39.30;;;21.60;;
41667;SDS011;27356;50.920;5.350;2023-02-15T09:29:08;49.45;;;21.52;;
41667;SDS011;27356;50.920;5.350;2023-02-15T09:31:38;46.53;;;20.48;;
41667;SDS011;27356;50.920;5.350;2023-02-15T09:34:09;42.10;;;20.38;;
41667;SDS011;27356;50.920;5.350;2023-02-15T09:36:36;39.90;;;18.90;;
41667;SDS011;27356;50.920;5.350;2023-02-15T10:07:04;36.10;;;18.25;;
41667;SDS011;27356;50.920;5.350;2023-02-15T10:09:40;34.10;;;17.95;;
41667;SDS011;27356;50.920;5.350;2023-02-15T10:15:08;32.97;;;18.50;;
41667;SDS011;27356;50.920;5.350;2023-02-15T10:26:04;43.03;;;21.30;;
41667;SDS011;27356;50.920;5.350;2023-02-15T10:28:53;34.42;;;20.40;;
41667;SDS011;27356;50.920;5.350;2023-02-15T10:34:16;38.92;;;19.35;;
41667;SDS011;27356;50.920;5.350;2023-02-15T10:37:10;40.10;;;21.40;;
41667;SDS011;27356;50.920;5.350;2023-02-15T10:39:52;38.83;;;21.48;;
41667;SDS011;27356;50.920;5.350;2023-02-15T10:43:06;36.50;;;19.88;;
41667;SDS011;27356;50.920;5.350;2023-02-15T10:45:54;35.53;;;19.75;;
41667;SDS011;27356;50.920;5.350;2023-02-15T11:00:30;38.75;;;19.98;;
41667;SDS011;27356;50.920;5.350;2023-02-15T11:03:14;32.40;;;18.13;;
41667;SDS011;27356;50.920;5.350;2023-02-15T11:06:22;31.33;;;17.25;;
41667;SDS011;27356;50.920;5.350;2023-02-15T11:08:54;38.17;;;17.73;;
41667;SDS011;27356;50.920;5.350;2023-02-15T11:11:30;35.13;;;17.90;;
41667;SDS011;27356;50.920;5.350;2023-02-15T11:14:14;34.30;;;16.98;;
41667;SDS011;27356;50.920;5.350;2023-02-15T11:16:46;34.05;;;17.88;;
41667;SDS011;27356;50.920;5.350;2023-02-15T11:19:52;31.55;;;17.50;;
41667;SDS011;27356;50.920;5.350;2023-02-15T11:22:10;30.95;;;16.90;;
41667;SDS011;27356;50.920;5.350;2023-02-15T11:24:43;35.90;;;17.52;;
41667;SDS011;27356;50.920;5.350;2023-02-15T11:27:24;37.05;;;16.30;;
41667;SDS011;27356;50.920;5.350;2023-02-15T11:30:11;30.63;;;15.68;;
41667;SDS011;27356;50.920;5.350;2023-02-15T11:32:46;26.85;;;15.98;;
41667;SDS011;27356;50.920;5.350;2023-02-15T11:38:05;28.30;;;15.02;;
41667;SDS011;27356;50.920;5.350;2023-02-15T11:40:47;29.65;;;16.25;;
41667;SDS011;27356;50.920;5.350;2023-02-15T11:43:30;30.27;;;15.38;;
41667;SDS011;27356;50.920;5.350;2023-02-15T11:46:02;30.85;;;16.40;;
41667;SDS011;27356;50.920;5.350;2023-02-15T11:48:40;29.85;;;16.45;;
41667;SDS011;27356;50.920;5.350;2023-02-15T11:51:14;30.90;;;15.82;;
41667;SDS011;27356;50.920;5.350;2023-02-15T11:53:43;41.88;;;16.63;;
41667;SDS011;27356;50.920;5.350;2023-02-15T11:56:15;32.03;;;17.17;;
41667;SDS011;27356;50.920;5.350;2023-02-15T12:01:41;31.80;;;15.15;;
41667;SDS011;27356;50.920;5.350;2023-02-15T12:04:13;39.20;;;17.23;;
41667;SDS011;27356;50.920;5.350;2023-02-15T12:06:54;30.60;;;16.33;;
41667;SDS011;27356;50.920;5.350;2023-02-15T12:09:32;37.78;;;15.60;;
41667;SDS011;27356;50.920;5.350;2023-02-15T12:14:52;35.17;;;16.42;;
41667;SDS011;27356;50.920;5.350;2023-02-15T12:17:26;32.95;;;15.65;;
41667;SDS011;27356;50.920;5.350;2023-02-15T12:19:57;38.00;;;18.17;;
41667;SDS011;27356;50.920;5.350;2023-02-15T12:22:27;31.08;;;16.20;;
41667;SDS011;27356;50.920;5.350;2023-02-15T12:24:56;36.15;;;16.67;;
41667;SDS011;27356;50.920;5.350;2023-02-15T12:32:24;34.22;;;15.77;;
41667;SDS011;27356;50.920;5.350;2023-02-15T12:35:16;37.20;;;17.55;;
41667;SDS011;27356;50.920;5.350;2023-02-15T12:38:23;30.45;;;16.08;;
41667;SDS011;27356;50.920;5.350;2023-02-15T12:40:41;27.75;;;15.55;;
41667;SDS011;27356;50.920;5.350;2023-02-15T12:43:33;28.98;;;15.95;;
41667;SDS011;27356;50.920;5.350;2023-02-15T12:48:46;29.50;;;15.70;;
41667;SDS011;27356;50.920;5.350;2023-02-15T12:51:31;30.70;;;16.58;;
41667;SDS011;27356;50.920;5.350;2023-02-15T12:54:28;32.35;;;17.65;;
41667;SDS011;27356;50.920;5.350;2023-02-15T12:59:56;34.95;;;17.83;;
41667;SDS011;27356;50.920;5.350;2023-02-15T13:02:36;28.48;;;16.23;;
41667;SDS011;27356;50.920;5.350;2023-02-15T13:05:39;27.38;;;15.82;;
41667;SDS011;27356;50.920;5.350;2023-02-15T13:13:32;29.42;;;16.95;;
41667;SDS011;27356;50.920;5.350;2023-02-15T13:16:13;28.02;;;16.42;;
41667;SDS011;27356;50.920;5.350;2023-02-15T13:18:44;32.10;;;16.52;;
41667;SDS011;27356;50.920;5.350;2023-02-15T13:21:28;28.20;;;16.33;;
41667;SDS011;27356;50.920;5.350;2023-02-15T13:24:06;28.52;;;16.23;;
41667;SDS011;27356;50.920;5.350;2023-02-15T13:26:52;39.47;;;17.00;;
41667;SDS011;27356;50.920;5.350;2023-02-15T13:29:28;29.65;;;16.08;;
41667;SDS011;27356;50.920;5.350;2023-02-15T13:32:10;29.83;;;16.65;;
41667;SDS011;27356;50.920;5.350;2023-02-15T13:37:34;26.90;;;16.10;;
41667;SDS011;27356;50.920;5.350;2023-02-15T13:40:22;29.88;;;16.52;;
41667;SDS011;27356;50.920;5.350;2023-02-15T13:50:42;27.58;;;16.45;;
41667;SDS011;27356;50.920;5.350;2023-02-15T13:55:57;32.35;;;16.70;;
41667;SDS011;27356;50.920;5.350;2023-02-15T14:15:44;27.48;;;15.43;;
41667;SDS011;27356;50.920;5.350;2023-02-15T14:18:41;28.80;;;14.75;;
41667;SDS011;27356;50.920;5.350;2023-02-15T14:31:37;31.05;;;16.30;;
41667;SDS011;27356;50.920;5.350;2023-02-15T14:34:08;28.50;;;15.15;;
41667;SDS011;27356;50.920;5.350;2023-02-15T14:36:49;30.53;;;16.20;;
41667;SDS011;27356;50.920;5.350;2023-02-15T14:39:36;29.85;;;16.10;;
41667;SDS011;27356;50.920;5.350;2023-02-15T14:42:38;32.03;;;16.85;;
41667;SDS011;27356;50.920;5.350;2023-02-15T14:48:14;35.40;;;17.05;;
41667;SDS011;27356;50.920;5.350;2023-02-15T14:51:03;32.22;;;15.57;;
41667;SDS011;27356;50.920;5.350;2023-02-15T14:58:54;28.60;;;17.55;;
41667;SDS011;27356;50.920;5.350;2023-02-15T15:01:28;32.30;;;18.08;;
41667;SDS011;27356;50.920;5.350;2023-02-15T15:03:58;30.33;;;17.75;;
41667;SDS011;27356;50.920;5.350;2023-02-15T15:06:30;30.95;;;17.92;;
41667;SDS011;27356;50.920;5.350;2023-02-15T15:09:18;35.08;;;19.48;;
41667;SDS011;27356;50.920;5.350;2023-02-15T15:11:49;29.85;;;17.25;;
41667;SDS011;27356;50.920;5.350;2023-02-15T15:19:59;30.92;;;17.23;;
41667;SDS011;27356;50.920;5.350;2023-02-15T15:22:27;30.10;;;17.10;;
41667;SDS011;27356;50.920;5.350;2023-02-15T15:24:58;41.03;;;18.33;;
41667;SDS011;27356;50.920;5.350;2023-02-15T15:35:27;37.00;;;17.88;;
41667;SDS011;27356;50.920;5.350;2023-02-15T15:44:06;32.55;;;18.85;;
41667;SDS011;27356;50.920;5.350;2023-02-15T15:49:34;32.83;;;17.83;;
41667;SDS011;27356;50.920;5.350;2023-02-15T15:52:08;35.17;;;19.25;;
41667;SDS011;27356;50.920;5.350;2023-02-15T15:54:42;34.83;;;18.92;;
41667;SDS011;27356;50.920;5.350;2023-02-15T15:57:15;31.40;;;19.02;;
41667;SDS011;27356;50.920;5.350;2023-02-15T15:59:59;32.78;;;19.63;;
41667;SDS011;27356;50.920;5.350;2023-02-15T16:02:25;34.60;;;19.40;;
41667;SDS011;27356;50.920;5.350;2023-02-15T16:05:04;35.95;;;20.38;;
41667;SDS011;27356;50.920;5.350;2023-02-15T16:07:32;34.15;;;19.15;;
41667;SDS011;27356;50.920;5.350;2023-02-15T16:10:02;35.80;;;20.13;;
41667;SDS011;27356;50.920;5.350;2023-02-15T16:12:31;38.78;;;20.25;;
41667;SDS011;27356;50.920;5.350;2023-02-15T16:15:00;40.30;;;21.10;;
41667;SDS011;27356;50.920;5.350;2023-02-15T16:17:40;35.30;;;20.73;;
41667;SDS011;27356;50.920;5.350;2023-02-15T16:25:45;40.55;;;21.63;;
41667;SDS011;27356;50.920;5.350;2023-02-15T16:28:31;43.95;;;23.08;;
41667;SDS011;27356;50.920;5.350;2023-02-15T16:31:10;39.28;;;22.20;;
41667;SDS011;27356;50.920;5.350;2023-02-15T16:33:45;37.65;;;22.00;;
41667;SDS011;27356;50.920;5.350;2023-02-15T16:36:12;38.17;;;21.38;;
41667;SDS011;27356;50.920;5.350;2023-02-15T16:41:25;40.35;;;22.08;;
41667;SDS011;27356;50.920;5.350;2023-02-15T16:43:53;39.97;;;21.95;;
41667;SDS011;27356;50.920;5.350;2023-02-15T16:46:24;48.45;;;22.90;;
41667;SDS011;27356;50.920;5.350;2023-02-15T16:48:53;42.73;;;23.13;;
41667;SDS011;27356;50.920;5.350;2023-02-15T16:51:24;39.42;;;22.65;;
41667;SDS011;27356;50.920;5.350;2023-02-15T16:53:52;44.70;;;23.83;;
41667;SDS011;27356;50.920;5.350;2023-02-15T16:56:24;45.55;;;23.73;;
41667;SDS011;27356;50.920;5.350;2023-02-15T16:58:52;48.38;;;23.73;;
41667;SDS011;27356;50.920;5.350;2023-02-15T17:01:20;46.00;;;23.85;;
41667;SDS011;27356;50.920;5.350;2023-02-15T17:03:49;45.22;;;24.55;;
41667;SDS011;27356;50.920;5.350;2023-02-15T17:06:26;40.15;;;22.92;;
41667;SDS011;27356;50.920;5.350;2023-02-15T17:09:02;41.70;;;23.15;;
41667;SDS011;27356;50.920;5.350;2023-02-15T17:11:40;44.00;;;23.60;;
41667;SDS011;27356;50.920;5.350;2023-02-15T17:16:42;39.92;;;22.63;;
41667;SDS011;27356;50.920;5.350;2023-02-15T17:19:23;44.72;;;23.40;;
41667;SDS011;27356;50.920;5.350;2023-02-15T17:22:05;43.50;;;23.42;;
41667;SDS011;27356;50.920;5.350;2023-02-15T17:24:39;52.20;;;25.27;;
41667;SDS011;27356;50.920;5.350;2023-02-15T17:27:12;48.72;;;24.23;;
41667;SDS011;27356;50.920;5.350;2023-02-15T17:29:46;43.47;;;23.55;;
41667;SDS011;27356;50.920;5.350;2023-02-15T17:32:15;50.33;;;23.20;;
41667;SDS011;27356;50.920;5.350;2023-02-15T17:34:56;46.47;;;23.52;;
41667;SDS011;27356;50.920;5.350;2023-02-15T17:40:19;47.75;;;23.58;;
41667;SDS011;27356;50.920;5.350;2023-02-15T17:42:53;45.90;;;23.48;;
41667;SDS011;27356;50.920;5.350;2023-02-15T17:45:20;47.20;;;23.40;;
41667;SDS011;27356;50.920;5.350;2023-02-15T17:47:47;42.75;;;22.85;;
41667;SDS011;27356;50.920;5.350;2023-02-15T17:50:18;41.90;;;21.65;;
41667;SDS011;27356;50.920;5.350;2023-02-15T17:52:47;45.75;;;23.40;;
41667;SDS011;27356;50.920;5.350;2023-02-15T17:55:16;49.80;;;23.70;;
41667;SDS011;27356;50.920;5.350;2023-02-15T17:58:03;47.40;;;24.45;;
41667;SDS011;27356;50.920;5.350;2023-02-15T18:00:41;44.85;;;24.35;;